Aérodrome :
LOGIN :

S'inscrire | Disclaimer

   EN    FR    IT 

 










Légende :    VFR   VFR Marginal   IFR   IFR Intensif   IFR Très Intensif
Visi : 
Plafond : 
>= 8 km
>= 3000ft
5 à 8 km
1000 à 3000 ft
1500m à 5 km
500 à 1000 ft
800 à 1500m
200 à 500 ft
< 800m
< 200 ft
Symboles :   Orages  Brouillard  Fortes neiges  Fortes précipitations  Vent > 20 kt
SIGMETs :   Divers  Orages  Givrage  Turbulence  Onde Orograph.  Cendres Volcan.






- Altitude de l'aérodrome : 935 ft


EBFS - Florennes

DERNIER METAR :
  • 161442Z AUTO 18009KT 1200 -SN OVC013/// M03/M03 Q1020 AMB

METARs EXPIRÉS :
  • 161425Z AUTO 18008KT 1000 SN OVC013/// M03/M03 Q1020 AMB
  • 161417Z AUTO 18007KT 0700 SN OVC014/// M03/M03 Q1020 RED
  • 161355Z AUTO 18007KT 0700 SN SCT006/// BKN008/// BKN011/// M03/M03 Q1021 RED
  • 161352Z AUTO 18007KT 0900 SN SCT006/// BKN008/// BKN011/// M03/M03 Q1021 AMB
  • 161337Z AUTO 18007KT 1300 -SN FEW007/// SCT011/// BKN043/// M02/M04 Q1021 AMB
  • 161325Z AUTO 18008KT 3900 -SN FEW008/// SCT050/// BKN070/// M02/M04 Q1021 GRN
  • 161316Z AUTO 18008KT 7000 FEW009/// SCT075/// BKN090/// M02/M04 Q1021 WHT
  • 161255Z AUTO 17010KT 8000 BKN090/// OVC100/// M02/M04 Q1021 BLU
  • 161225Z AUTO 18008KT 9999 BKN100/// BKN110/// M02/M04 Q1022 BLU
  • 161155Z AUTO 18009KT 9999 BKN100/// BKN120/// M02/M04 Q1023 BLU

Prévision TAF périmée.



MET'MAP, la Météo Aéronautique d'un coup d'oeil ! - Copyright ORBIFLY Décembre 2007 - Disclaimer

ORBIFLY MET'MAP TEAM :

Programmation & Développement : Alexandra Zaïnal
Sur une idée originale de : Baudouin d'Aumeries
Assistance à la programmation : Marc-Olivier Méhu
Soutien technique & logistique : Manuel Goepfert

Contact : metmap@orbifly.com




SOURCES & CREDITS :

   NOAA